createdAt,value
2019-04-14T00:01:10.943Z,88.9
2019-04-14T00:06:11.427Z,88.5
2019-04-14T00:11:10.624Z,88.6
2019-04-14T00:16:10.245Z,88.3
2019-04-14T00:21:09.343Z,89.2
2019-04-14T00:26:09.584Z,89.5
2019-04-14T00:31:08.973Z,89.4
2019-04-14T00:36:08.920Z,89.6
2019-04-14T00:41:09.562Z,89.8
2019-04-14T00:46:10.155Z,89.9
2019-04-14T00:51:09.390Z,89.9
2019-04-14T00:56:08.924Z,89.6
2019-04-14T01:01:09.274Z,90.2
2019-04-14T01:06:09.900Z,90
2019-04-14T01:11:09.836Z,89.9
2019-04-14T01:16:19.954Z,90.8
2019-04-14T01:21:18.169Z,90
2019-04-14T01:26:18.325Z,90.4
2019-04-14T01:31:18.611Z,91.2
2019-04-14T01:36:19.053Z,90.9
2019-04-14T01:41:19.528Z,90.3
2019-04-14T01:46:29.360Z,90.6
2019-04-14T01:51:28.993Z,90
2019-04-14T01:56:29.433Z,91.1
2019-04-14T02:01:28.826Z,91.1
2019-04-14T02:06:29.001Z,91.6
2019-04-14T02:11:29.414Z,92.1
2019-04-14T02:16:45.186Z,91.6
2019-04-14T02:21:45.820Z,91.8
2019-04-14T02:26:46.149Z,91.5
2019-04-14T02:32:40.683Z,91.6
2019-04-14T02:44:59.646Z,88.9
2019-04-14T02:50:47.463Z,88.9
2019-04-14T02:56:51.935Z,88.7
2019-04-14T03:02:56.006Z,88.4
2019-04-14T03:09:28.668Z,87.5
2019-04-14T03:15:23.532Z,87.4
2019-04-14T03:21:26.133Z,87.9
2019-04-14T03:27:39.609Z,87.7
2019-04-14T03:39:30.855Z,87.8
2019-04-14T03:45:35.491Z,86.9
2019-04-14T03:51:44.217Z,87.5
2019-04-14T03:56:42.921Z,86.7
2019-04-14T04:01:41.698Z,88
2019-04-14T04:06:42.424Z,88.2
2019-04-14T04:11:41.844Z,87.7
2019-04-14T04:16:42.111Z,88.2
2019-04-14T04:21:42.519Z,86.4
2019-04-14T04:26:43.249Z,86.4
2019-04-14T04:31:44.155Z,86.3
2019-04-14T04:36:44.418Z,82
2019-04-14T04:41:45.292Z,81.4
2019-04-14T04:46:46.183Z,80
2019-04-14T04:51:46.763Z,78.4
2019-04-14T04:56:47.470Z,76.3
2019-04-14T05:01:49.614Z,68.3
2019-04-14T05:06:50.790Z,67.7
2019-04-14T05:11:55.159Z,68.8
2019-04-14T05:16:55.172Z,71.8
2019-04-14T05:21:54.596Z,72.6
2019-04-14T05:26:55.190Z,76.4
2019-04-14T05:31:55.692Z,76.9
2019-04-14T05:36:54.855Z,78.2
2019-04-14T05:42:12.388Z,76.5
2019-04-14T05:47:11.297Z,74.8
2019-04-14T05:52:10.393Z,77.3
2019-04-14T05:57:11.562Z,77.1
2019-04-14T06:02:11.785Z,76.9
2019-04-14T06:07:11.686Z,75.7
2019-04-14T06:12:11.712Z,74
2019-04-14T06:17:11.587Z,73.4
2019-04-14T06:22:11.756Z,73.5
2019-04-14T06:27:11.734Z,68.9
2019-04-14T06:32:11.363Z,69.1
2019-04-14T06:37:11.371Z,66.8
2019-04-14T06:42:11.375Z,64.9
2019-04-14T06:47:10.700Z,67.4
2019-04-14T06:52:11.921Z,68.6
2019-04-14T06:57:13.480Z,64.7
2019-04-14T07:02:13.826Z,59.9
2019-04-14T07:07:15.243Z,61.7
2019-04-14T07:12:16.612Z,50.9
2019-04-14T07:17:16.693Z,52.2
2019-04-14T07:22:16.149Z,53.7
2019-04-14T07:27:15.856Z,58.1
2019-04-14T07:32:13.928Z,55.4
2019-04-14T07:37:13.854Z,55.8
2019-04-14T07:42:14.409Z,53.7
2019-04-14T07:47:14.549Z,55.8
2019-04-14T07:52:12.219Z,59.2
2019-04-14T07:57:12.055Z,53.8
2019-04-14T08:02:13.310Z,53.8
2019-04-14T08:07:12.536Z,52
2019-04-14T08:12:13.356Z,51
2019-04-14T08:17:11.298Z,50.2
2019-04-14T08:22:11.500Z,49.9
2019-04-14T08:27:11.540Z,52.2
2019-04-14T08:32:11.831Z,54
2019-04-14T08:37:11.441Z,53.3
2019-04-14T08:42:11.557Z,56.6
2019-04-14T08:47:11.947Z,50.5
2019-04-14T08:52:11.277Z,57.1
2019-04-14T08:57:11.677Z,51
2019-04-14T09:02:10.985Z,53.1
2019-04-14T09:07:10.588Z,53.4
2019-04-14T09:12:16.368Z,52.9
2019-04-14T09:17:15.690Z,53.8
2019-04-14T09:22:16.601Z,49.4
2019-04-14T09:27:16.403Z,48.3
2019-04-14T09:32:16.211Z,47.2
2019-04-14T09:37:15.181Z,47.6
2019-04-14T09:42:14.895Z,47.4
2019-04-14T09:47:13.733Z,54
2019-04-14T09:52:17.019Z,48.1
2019-04-14T09:57:15.534Z,48.6
2019-04-14T10:02:15.732Z,48.2
2019-04-14T10:07:15.574Z,48.9
2019-04-14T10:12:15.761Z,46
2019-04-14T10:17:15.638Z,50.8
2019-04-14T10:22:16.875Z,47.5
2019-04-14T10:27:16.397Z,45.3
2019-04-14T10:32:15.501Z,48.2
2019-04-14T10:37:15.196Z,46.4
2019-04-14T10:42:14.080Z,50.3
2019-04-14T10:47:13.946Z,46.5
2019-04-14T10:52:13.340Z,51
2019-04-14T10:57:15.672Z,49.8
2019-04-14T11:02:15.957Z,49.5
2019-04-14T11:07:17.037Z,45.8
2019-04-14T11:12:16.932Z,47.1
2019-04-14T11:17:16.306Z,45.1
2019-04-14T11:22:15.648Z,45.2
2019-04-14T11:27:15.252Z,46.7
2019-04-14T11:32:14.822Z,50.5
2019-04-14T11:37:13.986Z,47.6
2019-04-14T11:42:13.113Z,46.4
2019-04-14T11:47:12.678Z,48.7
2019-04-14T11:52:11.868Z,47.8
2019-04-14T11:57:11.572Z,51.3
2019-04-14T12:02:11.555Z,48.8
2019-04-14T12:07:12.003Z,48.6
2019-04-14T12:12:11.772Z,46.3
2019-04-14T12:17:11.776Z,48.9
2019-04-14T12:22:09.854Z,46.6
2019-04-14T12:27:10.597Z,44.7
2019-04-14T12:32:11.096Z,45.6
2019-04-14T12:37:10.912Z,48.3
2019-04-14T12:42:10.343Z,47
2019-04-14T12:47:09.906Z,47
2019-04-14T12:52:22.060Z,48
2019-04-14T12:57:19.889Z,45.4
2019-04-14T13:02:19.398Z,46.1
2019-04-14T13:07:19.348Z,47.6
2019-04-14T13:12:18.966Z,47.3
2019-04-14T13:17:18.593Z,47.3
2019-04-14T13:22:18.150Z,46.7
2019-04-14T13:27:17.556Z,47.5
2019-04-14T13:32:17.180Z,47.5
2019-04-14T13:37:16.418Z,47.1
2019-04-14T13:42:16.452Z,48.8
2019-04-14T13:47:15.946Z,47.3
2019-04-14T13:52:15.551Z,49.1
2019-04-14T13:57:15.868Z,45.9
2019-04-14T14:02:15.190Z,45.8
2019-04-14T14:07:15.335Z,45.8
2019-04-14T14:12:15.138Z,45.4
2019-04-14T14:17:14.269Z,46.3
2019-04-14T14:22:13.652Z,45.1
2019-04-14T14:27:13.235Z,45.1
2019-04-14T14:32:13.643Z,43.8
2019-04-14T14:37:13.558Z,45.3
2019-04-14T14:42:12.954Z,45.4
2019-04-14T14:47:12.567Z,46.6
2019-04-14T14:52:12.293Z,44.3
2019-04-14T14:57:12.092Z,48.2
2019-04-14T15:02:11.410Z,46
2019-04-14T15:07:11.513Z,46.6
2019-04-14T15:12:11.426Z,46.1
2019-04-14T15:17:10.853Z,45.3
2019-04-14T15:22:09.959Z,49.7
2019-04-14T15:27:09.366Z,49.5
2019-04-14T15:32:08.755Z,51.4
2019-04-14T15:37:08.265Z,52.5
2019-04-14T15:42:07.409Z,53.2
2019-04-14T15:47:06.558Z,55.5
2019-04-14T15:52:06.426Z,54.4
2019-04-14T15:57:06.067Z,53.6
2019-04-14T16:02:05.650Z,55.1
2019-04-14T16:07:05.287Z,56
2019-04-14T16:12:05.001Z,57.2
2019-04-14T16:17:04.518Z,58.3
2019-04-14T16:22:04.076Z,59
2019-04-14T16:27:03.689Z,59.3
2019-04-14T16:32:03.411Z,59.5
2019-04-14T16:37:03.526Z,61.4
2019-04-14T16:42:03.052Z,62.4
2019-04-14T16:47:02.219Z,64.1
2019-04-14T16:52:01.412Z,64.9
2019-04-14T16:57:00.739Z,65.2
2019-04-14T17:02:11.476Z,67.1
2019-04-14T17:07:09.157Z,68.7
2019-04-14T17:12:07.982Z,69.8
2019-04-14T17:17:07.652Z,68.9
2019-04-14T17:22:07.066Z,71
2019-04-14T17:27:06.519Z,71.4
2019-04-14T17:32:06.266Z,71
2019-04-14T17:37:05.945Z,70.7
2019-04-14T17:42:05.371Z,72.7
2019-04-14T17:47:04.697Z,72.6
2019-04-14T17:52:04.424Z,72.1
2019-04-14T17:57:03.984Z,74
2019-04-14T18:02:03.524Z,73.7
2019-04-14T18:07:03.136Z,73.8
2019-04-14T18:12:02.675Z,73.7
2019-04-14T18:17:02.381Z,74.9
2019-04-14T18:22:02.020Z,74.9
2019-04-14T18:27:01.505Z,75.9
2019-04-14T18:32:01.026Z,76
2019-04-14T18:37:00.586Z,76.6
2019-04-14T18:42:00.286Z,76.5
2019-04-14T18:46:59.950Z,76
2019-04-14T18:51:59.525Z,77.2
2019-04-14T18:56:58.993Z,77.6
2019-04-14T19:01:58.798Z,77.3
2019-04-14T19:06:58.663Z,77.7
2019-04-14T19:11:58.294Z,77.6
2019-04-14T19:16:57.730Z,78.4
2019-04-14T19:21:57.469Z,78.5
2019-04-14T19:26:56.722Z,79.2
2019-04-14T19:31:56.098Z,79.8
2019-04-14T19:36:54.934Z,80.3
2019-04-14T19:41:54.894Z,80.3
2019-04-14T19:46:54.568Z,80.1
2019-04-14T19:51:54.603Z,80.7
2019-04-14T19:56:54.356Z,80.3
2019-04-14T20:01:53.694Z,80
2019-04-14T20:06:53.327Z,80.6
2019-04-14T20:11:53.116Z,79.8
2019-04-14T20:16:52.939Z,80
2019-04-14T20:21:52.949Z,79.9
2019-04-14T20:26:52.531Z,79.7
2019-04-14T20:31:52.160Z,80.2
2019-04-14T20:36:51.896Z,79.7
2019-04-14T20:41:51.441Z,80.5
2019-04-14T20:46:51.027Z,81
2019-04-14T20:51:51.104Z,80.5
2019-04-14T20:56:50.882Z,81.2
2019-04-14T21:01:51.106Z,80.2
2019-04-14T21:06:50.546Z,79.6
2019-04-14T21:11:50.245Z,79.2
2019-04-14T21:16:50.084Z,79.1
2019-04-14T21:21:49.693Z,79.7
2019-04-14T21:26:49.562Z,80.4
2019-04-14T21:31:49.232Z,80.6
2019-04-14T21:36:49.139Z,80.8
2019-04-14T21:41:48.557Z,80.4
2019-04-14T21:46:48.017Z,81.3
2019-04-14T21:51:47.565Z,80
2019-04-14T21:56:47.280Z,79.8
2019-04-14T22:01:47.075Z,80.8
2019-04-14T22:06:46.719Z,81.4
2019-04-14T22:11:46.252Z,79.5
2019-04-14T22:16:45.958Z,79.7
2019-04-14T22:21:47.754Z,79.3
2019-04-14T22:26:47.012Z,79.1
2019-04-14T22:31:46.818Z,80
2019-04-14T22:36:46.496Z,80.8
2019-04-14T22:41:46.116Z,79
2019-04-14T22:46:45.749Z,78.7
2019-04-14T22:51:45.461Z,80.1
2019-04-14T22:56:45.071Z,80
2019-04-14T23:01:44.891Z,79.9
2019-04-14T23:06:44.381Z,79.3
2019-04-14T23:11:44.077Z,78.9
2019-04-14T23:16:43.364Z,79.3
2019-04-14T23:21:43.056Z,79
2019-04-14T23:26:53.247Z,79.3
2019-04-14T23:31:51.183Z,80
2019-04-14T23:36:50.926Z,79.6
2019-04-14T23:41:50.712Z,80
2019-04-14T23:46:50.348Z,81.3
2019-04-14T23:51:50.149Z,80.5
2019-04-14T23:56:49.466Z,80.9
